sensor_id;sensor_type;location;lat;lon;timestamp;P1;durP1;ratioP1;P2;durP2;ratioP2
68074;SDS011;54864;52.002;5.468;2023-11-21T00:00:30;25.50;;;16.60;;
68074;SDS011;54864;52.002;5.468;2023-11-21T00:01:52;26.05;;;15.45;;
68074;SDS011;54864;52.002;5.468;2023-11-21T00:03:13;25.05;;;16.48;;
68074;SDS011;54864;52.002;5.468;2023-11-21T00:04:36;26.35;;;16.52;;
68074;SDS011;54864;52.002;5.468;2023-11-21T00:05:58;30.77;;;16.88;;
68074;SDS011;54864;52.002;5.468;2023-11-21T00:07:21;28.20;;;16.90;;
68074;SDS011;54864;52.002;5.468;2023-11-21T00:08:42;36.15;;;17.25;;
68074;SDS011;54864;52.002;5.468;2023-11-21T00:10:04;29.67;;;16.80;;
68074;SDS011;54864;52.002;5.468;2023-11-21T00:11:26;30.65;;;16.55;;
68074;SDS011;54864;52.002;5.468;2023-11-21T00:12:49;35.60;;;17.48;;
68074;SDS011;54864;52.002;5.468;2023-11-21T00:14:12;32.20;;;16.75;;
68074;SDS011;54864;52.002;5.468;2023-11-21T00:15:35;27.85;;;16.23;;
68074;SDS011;54864;52.002;5.468;2023-11-21T00:16:56;31.90;;;17.08;;
68074;SDS011;54864;52.002;5.468;2023-11-21T00:18:18;31.23;;;17.20;;
68074;SDS011;54864;52.002;5.468;2023-11-21T00:19:39;33.45;;;18.35;;
68074;SDS011;54864;52.002;5.468;2023-11-21T00:21:03;39.13;;;18.55;;
68074;SDS011;54864;52.002;5.468;2023-11-21T00:22:24;46.33;;;20.48;;
68074;SDS011;54864;52.002;5.468;2023-11-21T00:23:46;42.03;;;20.33;;
68074;SDS011;54864;52.002;5.468;2023-11-21T00:25:07;42.80;;;20.30;;
68074;SDS011;54864;52.002;5.468;2023-11-21T00:26:30;45.97;;;20.17;;
68074;SDS011;54864;52.002;5.468;2023-11-21T00:27:57;48.97;;;20.55;;
68074;SDS011;54864;52.002;5.468;2023-11-21T00:29:20;51.92;;;21.40;;
68074;SDS011;54864;52.002;5.468;2023-11-21T00:30:41;58.35;;;21.90;;
68074;SDS011;54864;52.002;5.468;2023-11-21T00:32:03;54.33;;;21.20;;
68074;SDS011;54864;52.002;5.468;2023-11-21T00:33:26;64.35;;;22.85;;
68074;SDS011;54864;52.002;5.468;2023-11-21T00:34:48;62.67;;;23.60;;
68074;SDS011;54864;52.002;5.468;2023-11-21T00:36:09;59.95;;;23.30;;
68074;SDS011;54864;52.002;5.468;2023-11-21T00:37:31;68.60;;;24.25;;
68074;SDS011;54864;52.002;5.468;2023-11-21T00:38:52;59.47;;;21.90;;
68074;SDS011;54864;52.002;5.468;2023-11-21T00:40:16;72.47;;;23.88;;
68074;SDS011;54864;52.002;5.468;2023-11-21T00:41:39;58.53;;;22.73;;
68074;SDS011;54864;52.002;5.468;2023-11-21T00:43:02;68.47;;;23.95;;
68074;SDS011;54864;52.002;5.468;2023-11-21T00:44:24;60.10;;;23.83;;
68074;SDS011;54864;52.002;5.468;2023-11-21T00:45:46;49.20;;;22.55;;
68074;SDS011;54864;52.002;5.468;2023-11-21T00:47:09;51.25;;;22.60;;
68074;SDS011;54864;52.002;5.468;2023-11-21T00:48:31;50.08;;;21.92;;
68074;SDS011;54864;52.002;5.468;2023-11-21T00:49:52;46.53;;;21.77;;
68074;SDS011;54864;52.002;5.468;2023-11-21T00:51:14;44.80;;;21.23;;
68074;SDS011;54864;52.002;5.468;2023-11-21T00:52:35;45.22;;;21.45;;
68074;SDS011;54864;52.002;5.468;2023-11-21T00:53:57;52.95;;;22.75;;
68074;SDS011;54864;52.002;5.468;2023-11-21T00:55:18;56.40;;;23.00;;
68074;SDS011;54864;52.002;5.468;2023-11-21T00:56:41;44.93;;;21.33;;
68074;SDS011;54864;52.002;5.468;2023-11-21T00:58:02;52.53;;;20.87;;
68074;SDS011;54864;52.002;5.468;2023-11-21T00:59:26;47.00;;;21.23;;
68074;SDS011;54864;52.002;5.468;2023-11-21T01:00:47;44.00;;;20.52;;
68074;SDS011;54864;52.002;5.468;2023-11-21T01:02:09;46.63;;;21.67;;
68074;SDS011;54864;52.002;5.468;2023-11-21T01:03:31;40.67;;;19.80;;
68074;SDS011;54864;52.002;5.468;2023-11-21T01:04:53;38.70;;;20.08;;
68074;SDS011;54864;52.002;5.468;2023-11-21T01:06:14;44.95;;;20.52;;
68074;SDS011;54864;52.002;5.468;2023-11-21T01:07:36;41.10;;;20.08;;
68074;SDS011;54864;52.002;5.468;2023-11-21T01:08:57;40.53;;;19.48;;
68074;SDS011;54864;52.002;5.468;2023-11-21T01:10:19;41.92;;;18.60;;
68074;SDS011;54864;52.002;5.468;2023-11-21T01:11:41;39.35;;;19.20;;
68074;SDS011;54864;52.002;5.468;2023-11-21T01:13:03;36.22;;;18.30;;
68074;SDS011;54864;52.002;5.468;2023-11-21T01:14:27;39.38;;;18.23;;
68074;SDS011;54864;52.002;5.468;2023-11-21T01:15:49;42.53;;;18.10;;
68074;SDS011;54864;52.002;5.468;2023-11-21T01:17:10;30.38;;;17.23;;
68074;SDS011;54864;52.002;5.468;2023-11-21T01:18:32;32.15;;;17.15;;
68074;SDS011;54864;52.002;5.468;2023-11-21T01:19:54;33.25;;;18.10;;
68074;SDS011;54864;52.002;5.468;2023-11-21T01:21:16;33.45;;;17.63;;
68074;SDS011;54864;52.002;5.468;2023-11-21T01:22:38;29.08;;;16.95;;
68074;SDS011;54864;52.002;5.468;2023-11-21T01:24:00;30.77;;;18.13;;
68074;SDS011;54864;52.002;5.468;2023-11-21T01:25:21;27.73;;;17.93;;
68074;SDS011;54864;52.002;5.468;2023-11-21T01:26:43;28.50;;;16.20;;
68074;SDS011;54864;52.002;5.468;2023-11-21T01:28:07;33.08;;;16.15;;
68074;SDS011;54864;52.002;5.468;2023-11-21T01:29:30;32.92;;;16.05;;
68074;SDS011;54864;52.002;5.468;2023-11-21T01:30:51;31.30;;;17.00;;
68074;SDS011;54864;52.002;5.468;2023-11-21T01:32:16;34.42;;;15.75;;
68074;SDS011;54864;52.002;5.468;2023-11-21T01:33:37;30.08;;;15.95;;
68074;SDS011;54864;52.002;5.468;2023-11-21T01:34:59;39.33;;;17.55;;
68074;SDS011;54864;52.002;5.468;2023-11-21T01:36:20;29.70;;;15.35;;
68074;SDS011;54864;52.002;5.468;2023-11-21T01:37:42;25.23;;;14.50;;
68074;SDS011;54864;52.002;5.468;2023-11-21T01:39:04;24.88;;;15.07;;
68074;SDS011;54864;52.002;5.468;2023-11-21T01:40:28;24.33;;;14.80;;
68074;SDS011;54864;52.002;5.468;2023-11-21T01:41:51;23.60;;;14.27;;
68074;SDS011;54864;52.002;5.468;2023-11-21T01:43:13;24.10;;;13.80;;
68074;SDS011;54864;52.002;5.468;2023-11-21T01:44:35;27.10;;;14.60;;
68074;SDS011;54864;52.002;5.468;2023-11-21T01:45:58;22.37;;;14.03;;
68074;SDS011;54864;52.002;5.468;2023-11-21T01:47:19;21.60;;;14.00;;
68074;SDS011;54864;52.002;5.468;2023-11-21T01:48:42;19.60;;;13.02;;
68074;SDS011;54864;52.002;5.468;2023-11-21T01:50:03;21.20;;;14.10;;
68074;SDS011;54864;52.002;5.468;2023-11-21T01:51:28;28.10;;;15.05;;
68074;SDS011;54864;52.002;5.468;2023-11-21T01:52:49;26.60;;;14.10;;
68074;SDS011;54864;52.002;5.468;2023-11-21T01:54:12;22.80;;;14.30;;
68074;SDS011;54864;52.002;5.468;2023-11-21T01:55:33;18.13;;;14.07;;
68074;SDS011;54864;52.002;5.468;2023-11-21T01:56:56;19.20;;;13.90;;
68074;SDS011;54864;52.002;5.468;2023-11-21T01:58:19;24.90;;;14.75;;
68074;SDS011;54864;52.002;5.468;2023-11-21T01:59:43;21.85;;;14.32;;
68074;SDS011;54864;52.002;5.468;2023-11-21T02:01:05;19.65;;;14.18;;
68074;SDS011;54864;52.002;5.468;2023-11-21T02:02:27;21.83;;;14.20;;
68074;SDS011;54864;52.002;5.468;2023-11-21T02:03:48;18.27;;;13.52;;
68074;SDS011;54864;52.002;5.468;2023-11-21T02:05:10;20.27;;;14.20;;
68074;SDS011;54864;52.002;5.468;2023-11-21T02:06:32;18.50;;;13.80;;
68074;SDS011;54864;52.002;5.468;2023-11-21T02:07:55;18.00;;;13.35;;
68074;SDS011;54864;52.002;5.468;2023-11-21T02:09:17;21.92;;;14.35;;
68074;SDS011;54864;52.002;5.468;2023-11-21T02:10:44;20.08;;;14.38;;
68074;SDS011;54864;52.002;5.468;2023-11-21T02:12:06;20.80;;;14.73;;
68074;SDS011;54864;52.002;5.468;2023-11-21T02:13:29;19.47;;;13.77;;
68074;SDS011;54864;52.002;5.468;2023-11-21T02:14:52;20.92;;;14.13;;
68074;SDS011;54864;52.002;5.468;2023-11-21T02:16:14;22.63;;;14.15;;
68074;SDS011;54864;52.002;5.468;2023-11-21T02:17:35;21.85;;;13.65;;
68074;SDS011;54864;52.002;5.468;2023-11-21T02:18:57;20.95;;;14.05;;
68074;SDS011;54864;52.002;5.468;2023-11-21T02:20:20;24.52;;;14.50;;
68074;SDS011;54864;52.002;5.468;2023-11-21T02:21:45;21.10;;;14.48;;
68074;SDS011;54864;52.002;5.468;2023-11-21T02:23:07;26.55;;;15.43;;
68074;SDS011;54864;52.002;5.468;2023-11-21T02:24:29;23.90;;;14.90;;
68074;SDS011;54864;52.002;5.468;2023-11-21T02:25:50;25.33;;;14.02;;
68074;SDS011;54864;52.002;5.468;2023-11-21T02:27:13;23.15;;;15.38;;
68074;SDS011;54864;52.002;5.468;2023-11-21T02:28:41;27.55;;;15.15;;
68074;SDS011;54864;52.002;5.468;2023-11-21T02:30:03;26.52;;;15.45;;
68074;SDS011;54864;52.002;5.468;2023-11-21T02:31:25;22.42;;;15.85;;
68074;SDS011;54864;52.002;5.468;2023-11-21T02:32:47;24.35;;;15.57;;
68074;SDS011;54864;52.002;5.468;2023-11-21T02:34:09;25.58;;;15.50;;
68074;SDS011;54864;52.002;5.468;2023-11-21T02:35:32;22.40;;;15.32;;
68074;SDS011;54864;52.002;5.468;2023-11-21T02:36:53;23.17;;;16.70;;
68074;SDS011;54864;52.002;5.468;2023-11-21T02:38:17;25.13;;;15.73;;
68074;SDS011;54864;52.002;5.468;2023-11-21T02:39:38;24.25;;;16.52;;
68074;SDS011;54864;52.002;5.468;2023-11-21T02:41:00;24.55;;;15.98;;
68074;SDS011;54864;52.002;5.468;2023-11-21T02:42:21;24.48;;;15.85;;
68074;SDS011;54864;52.002;5.468;2023-11-21T02:43:43;29.55;;;15.93;;
68074;SDS011;54864;52.002;5.468;2023-11-21T02:45:05;20.00;;;15.57;;
68074;SDS011;54864;52.002;5.468;2023-11-21T02:46:28;23.17;;;15.65;;
68074;SDS011;54864;52.002;5.468;2023-11-21T02:47:49;20.88;;;15.45;;
68074;SDS011;54864;52.002;5.468;2023-11-21T02:49:13;21.95;;;15.95;;
68074;SDS011;54864;52.002;5.468;2023-11-21T02:50:34;21.30;;;15.90;;
68074;SDS011;54864;52.002;5.468;2023-11-21T02:51:57;27.23;;;15.33;;
68074;SDS011;54864;52.002;5.468;2023-11-21T02:53:20;22.42;;;15.07;;
68074;SDS011;54864;52.002;5.468;2023-11-21T02:54:42;23.20;;;15.35;;
68074;SDS011;54864;52.002;5.468;2023-11-21T02:56:03;24.80;;;15.98;;
68074;SDS011;54864;52.002;5.468;2023-11-21T02:57:25;24.25;;;15.00;;
68074;SDS011;54864;52.002;5.468;2023-11-21T02:58:46;20.30;;;15.35;;
68074;SDS011;54864;52.002;5.468;2023-11-21T03:00:09;21.98;;;15.43;;
68074;SDS011;54864;52.002;5.468;2023-11-21T03:01:33;21.92;;;15.60;;
68074;SDS011;54864;52.002;5.468;2023-11-21T03:02:55;20.27;;;14.88;;
68074;SDS011;54864;52.002;5.468;2023-11-21T03:04:17;19.85;;;15.18;;
68074;SDS011;54864;52.002;5.468;2023-11-21T03:05:39;22.70;;;15.40;;
68074;SDS011;54864;52.002;5.468;2023-11-21T03:07:00;21.48;;;16.13;;
68074;SDS011;54864;52.002;5.468;2023-11-21T03:08:24;21.55;;;14.63;;
68074;SDS011;54864;52.002;5.468;2023-11-21T03:09:45;20.75;;;15.05;;
68074;SDS011;54864;52.002;5.468;2023-11-21T03:11:07;21.85;;;15.20;;
68074;SDS011;54864;52.002;5.468;2023-11-21T03:12:28;23.13;;;15.02;;
68074;SDS011;54864;52.002;5.468;2023-11-21T03:13:50;23.17;;;15.20;;
68074;SDS011;54864;52.002;5.468;2023-11-21T03:15:12;25.48;;;17.23;;
68074;SDS011;54864;52.002;5.468;2023-11-21T03:16:34;22.10;;;15.85;;
68074;SDS011;54864;52.002;5.468;2023-11-21T03:17:55;22.83;;;15.10;;
68074;SDS011;54864;52.002;5.468;2023-11-21T03:19:17;22.75;;;15.88;;
68074;SDS011;54864;52.002;5.468;2023-11-21T03:20:38;20.73;;;15.35;;
68074;SDS011;54864;52.002;5.468;2023-11-21T03:22:00;22.75;;;15.63;;
68074;SDS011;54864;52.002;5.468;2023-11-21T03:23:21;23.27;;;15.77;;
68074;SDS011;54864;52.002;5.468;2023-11-21T03:24:45;25.30;;;15.60;;
68074;SDS011;54864;52.002;5.468;2023-11-21T03:26:06;21.95;;;14.93;;
68074;SDS011;54864;52.002;5.468;2023-11-21T03:27:33;23.02;;;16.13;;
68074;SDS011;54864;52.002;5.468;2023-11-21T03:28:54;23.65;;;16.02;;
68074;SDS011;54864;52.002;5.468;2023-11-21T03:30:16;24.63;;;16.30;;
68074;SDS011;54864;52.002;5.468;2023-11-21T03:31:37;24.17;;;15.75;;
68074;SDS011;54864;52.002;5.468;2023-11-21T03:32:59;24.48;;;16.30;;
68074;SDS011;54864;52.002;5.468;2023-11-21T03:34:22;23.23;;;15.05;;
68074;SDS011;54864;52.002;5.468;2023-11-21T03:35:46;22.90;;;15.90;;
68074;SDS011;54864;52.002;5.468;2023-11-21T03:37:07;25.38;;;16.63;;
68074;SDS011;54864;52.002;5.468;2023-11-21T03:38:29;24.80;;;15.93;;
68074;SDS011;54864;52.002;5.468;2023-11-21T03:39:52;22.23;;;15.23;;
68074;SDS011;54864;52.002;5.468;2023-11-21T03:41:14;24.25;;;15.43;;
68074;SDS011;54864;52.002;5.468;2023-11-21T03:42:35;24.40;;;16.45;;
68074;SDS011;54864;52.002;5.468;2023-11-21T03:43:57;25.33;;;15.77;;
68074;SDS011;54864;52.002;5.468;2023-11-21T03:45:18;25.58;;;16.52;;
68074;SDS011;54864;52.002;5.468;2023-11-21T03:46:41;24.45;;;15.68;;
68074;SDS011;54864;52.002;5.468;2023-11-21T03:48:02;22.33;;;16.20;;
68074;SDS011;54864;52.002;5.468;2023-11-21T03:49:24;24.45;;;14.57;;
68074;SDS011;54864;52.002;5.468;2023-11-21T03:50:45;26.25;;;15.77;;
68074;SDS011;54864;52.002;5.468;2023-11-21T03:52:08;21.30;;;15.13;;
68074;SDS011;54864;52.002;5.468;2023-11-21T03:53:29;25.98;;;16.23;;
68074;SDS011;54864;52.002;5.468;2023-11-21T03:54:53;20.48;;;15.32;;
68074;SDS011;54864;52.002;5.468;2023-11-21T03:56:14;22.95;;;15.95;;
68074;SDS011;54864;52.002;5.468;2023-11-21T03:57:36;26.42;;;16.33;;
68074;SDS011;54864;52.002;5.468;2023-11-21T03:58:57;22.75;;;15.38;;
68074;SDS011;54864;52.002;5.468;2023-11-21T04:00:19;24.75;;;15.70;;
68074;SDS011;54864;52.002;5.468;2023-11-21T04:01:41;24.35;;;15.68;;
68074;SDS011;54864;52.002;5.468;2023-11-21T04:03:03;23.98;;;15.50;;
68074;SDS011;54864;52.002;5.468;2023-11-21T04:04:25;26.40;;;16.17;;
68074;SDS011;54864;52.002;5.468;2023-11-21T04:05:47;25.10;;;16.15;;
68074;SDS011;54864;52.002;5.468;2023-11-21T04:07:08;25.17;;;15.93;;
68074;SDS011;54864;52.002;5.468;2023-11-21T04:08:31;24.73;;;17.02;;
68074;SDS011;54864;52.002;5.468;2023-11-21T04:09:55;25.27;;;15.17;;
68074;SDS011;54864;52.002;5.468;2023-11-21T04:11:17;22.45;;;14.85;;
68074;SDS011;54864;52.002;5.468;2023-11-21T04:12:38;21.90;;;16.17;;
68074;SDS011;54864;52.002;5.468;2023-11-21T04:14:00;26.23;;;16.92;;
68074;SDS011;54864;52.002;5.468;2023-11-21T04:15:21;25.27;;;16.15;;
68074;SDS011;54864;52.002;5.468;2023-11-21T04:16:44;26.67;;;16.13;;
68074;SDS011;54864;52.002;5.468;2023-11-21T04:18:05;22.83;;;15.65;;
68074;SDS011;54864;52.002;5.468;2023-11-21T04:19:27;21.83;;;15.27;;
68074;SDS011;54864;52.002;5.468;2023-11-21T04:20:48;23.70;;;16.23;;
68074;SDS011;54864;52.002;5.468;2023-11-21T04:22:10;25.73;;;15.93;;
68074;SDS011;54864;52.002;5.468;2023-11-21T04:23:31;23.17;;;16.50;;
68074;SDS011;54864;52.002;5.468;2023-11-21T04:24:53;24.17;;;15.35;;
68074;SDS011;54864;52.002;5.468;2023-11-21T04:26:17;21.40;;;16.10;;
68074;SDS011;54864;52.002;5.468;2023-11-21T04:27:40;25.95;;;15.85;;
68074;SDS011;54864;52.002;5.468;2023-11-21T04:29:04;22.05;;;15.43;;
68074;SDS011;54864;52.002;5.468;2023-11-21T04:30:26;23.50;;;15.77;;
68074;SDS011;54864;52.002;5.468;2023-11-21T04:31:47;21.90;;;15.13;;
68074;SDS011;54864;52.002;5.468;2023-11-21T04:33:09;25.98;;;16.10;;
68074;SDS011;54864;52.002;5.468;2023-11-21T04:34:30;24.40;;;15.43;;
68074;SDS011;54864;52.002;5.468;2023-11-21T04:35:52;24.17;;;15.50;;
68074;SDS011;54864;52.002;5.468;2023-11-21T04:37:13;23.83;;;15.48;;
68074;SDS011;54864;52.002;5.468;2023-11-21T04:38:36;27.05;;;16.73;;
68074;SDS011;54864;52.002;5.468;2023-11-21T04:39:57;26.55;;;16.92;;
68074;SDS011;54864;52.002;5.468;2023-11-21T04:41:20;25.90;;;16.70;;
68074;SDS011;54864;52.002;5.468;2023-11-21T04:42:41;24.73;;;16.65;;
68074;SDS011;54864;52.002;5.468;2023-11-21T04:44:04;24.48;;;16.10;;
68074;SDS011;54864;52.002;5.468;2023-11-21T04:45:25;25.00;;;15.77;;
68074;SDS011;54864;52.002;5.468;2023-11-21T04:46:47;23.08;;;16.40;;
68074;SDS011;54864;52.002;5.468;2023-11-21T04:48:08;22.27;;;15.02;;
68074;SDS011;54864;52.002;5.468;2023-11-21T04:49:30;25.05;;;16.38;;
68074;SDS011;54864;52.002;5.468;2023-11-21T04:50:52;24.10;;;15.75;;
68074;SDS011;54864;52.002;5.468;2023-11-21T04:52:14;24.23;;;15.23;;
68074;SDS011;54864;52.002;5.468;2023-11-21T04:53:35;24.00;;;15.57;;
68074;SDS011;54864;52.002;5.468;2023-11-21T04:54:57;23.88;;;16.38;;
68074;SDS011;54864;52.002;5.468;2023-11-21T04:56:20;23.52;;;15.68;;
68074;SDS011;54864;52.002;5.468;2023-11-21T04:57:42;24.08;;;15.98;;
68074;SDS011;54864;52.002;5.468;2023-11-21T04:59:03;27.73;;;16.17;;
68074;SDS011;54864;52.002;5.468;2023-11-21T05:00:25;21.70;;;15.88;;
68074;SDS011;54864;52.002;5.468;2023-11-21T05:01:46;27.52;;;16.80;;
68074;SDS011;54864;52.002;5.468;2023-11-21T05:03:09;22.85;;;15.43;;
68074;SDS011;54864;52.002;5.468;2023-11-21T05:04:30;25.25;;;15.43;;
68074;SDS011;54864;52.002;5.468;2023-11-21T05:05:52;24.05;;;16.45;;
68074;SDS011;54864;52.002;5.468;2023-11-21T05:07:13;23.20;;;15.80;;
68074;SDS011;54864;52.002;5.468;2023-11-21T05:08:36;24.25;;;15.73;;
68074;SDS011;54864;52.002;5.468;2023-11-21T05:09:58;22.77;;;15.35;;
68074;SDS011;54864;52.002;5.468;2023-11-21T05:11:25;23.90;;;16.00;;
68074;SDS011;54864;52.002;5.468;2023-11-21T05:12:47;24.25;;;16.02;;
68074;SDS011;54864;52.002;5.468;2023-11-21T05:14:10;25.17;;;15.85;;
68074;SDS011;54864;52.002;5.468;2023-11-21T05:15:32;25.52;;;15.10;;
68074;SDS011;54864;52.002;5.468;2023-11-21T05:16:54;23.23;;;15.38;;
68074;SDS011;54864;52.002;5.468;2023-11-21T05:18:15;27.02;;;15.48;;
68074;SDS011;54864;52.002;5.468;2023-11-21T05:19:37;23.02;;;15.32;;
68074;SDS011;54864;52.002;5.468;2023-11-21T05:20:59;23.90;;;16.08;;
68074;SDS011;54864;52.002;5.468;2023-11-21T05:22:21;20.75;;;15.30;;
68074;SDS011;54864;52.002;5.468;2023-11-21T05:23:42;28.65;;;16.55;;
68074;SDS011;54864;52.002;5.468;2023-11-21T05:25:05;22.40;;;15.65;;
68074;SDS011;54864;52.002;5.468;2023-11-21T05:26:29;24.30;;;16.38;;
68074;SDS011;54864;52.002;5.468;2023-11-21T05:27:51;27.20;;;17.05;;
68074;SDS011;54864;52.002;5.468;2023-11-21T05:29:13;23.25;;;16.63;;
68074;SDS011;54864;52.002;5.468;2023-11-21T05:30:35;26.35;;;16.38;;
68074;SDS011;54864;52.002;5.468;2023-11-21T05:31:57;23.17;;;14.57;;
68074;SDS011;54864;52.002;5.468;2023-11-21T05:33:19;22.00;;;15.05;;
68074;SDS011;54864;52.002;5.468;2023-11-21T05:34:40;24.35;;;15.55;;
68074;SDS011;54864;52.002;5.468;2023-11-21T05:36:02;26.30;;;16.35;;
68074;SDS011;54864;52.002;5.468;2023-11-21T05:37:25;27.17;;;16.38;;
68074;SDS011;54864;52.002;5.468;2023-11-21T05:38:47;27.33;;;16.40;;
68074;SDS011;54864;52.002;5.468;2023-11-21T05:40:09;26.40;;;15.88;;
68074;SDS011;54864;52.002;5.468;2023-11-21T05:41:32;28.20;;;16.35;;
68074;SDS011;54864;52.002;5.468;2023-11-21T05:42:54;25.15;;;16.13;;
68074;SDS011;54864;52.002;5.468;2023-11-21T05:44:16;24.45;;;15.25;;
68074;SDS011;54864;52.002;5.468;2023-11-21T05:45:38;26.85;;;16.00;;
68074;SDS011;54864;52.002;5.468;2023-11-21T05:46:59;26.83;;;16.10;;
68074;SDS011;54864;52.002;5.468;2023-11-21T05:48:21;26.05;;;16.48;;
68074;SDS011;54864;52.002;5.468;2023-11-21T05:49:42;26.60;;;17.02;;
68074;SDS011;54864;52.002;5.468;2023-11-21T05:51:06;25.50;;;16.45;;
68074;SDS011;54864;52.002;5.468;2023-11-21T05:52:27;25.45;;;15.93;;
68074;SDS011;54864;52.002;5.468;2023-11-21T05:53:49;26.48;;;16.80;;
68074;SDS011;54864;52.002;5.468;2023-11-21T05:55:10;29.50;;;17.67;;
68074;SDS011;54864;52.002;5.468;2023-11-21T05:56:34;29.17;;;16.40;;
68074;SDS011;54864;52.002;5.468;2023-11-21T05:57:55;24.42;;;15.75;;
68074;SDS011;54864;52.002;5.468;2023-11-21T05:59:17;24.85;;;15.25;;
68074;SDS011;54864;52.002;5.468;2023-11-21T06:00:40;23.98;;;16.05;;
68074;SDS011;54864;52.002;5.468;2023-11-21T06:02:03;22.40;;;16.10;;
68074;SDS011;54864;52.002;5.468;2023-11-21T06:03:25;24.48;;;16.30;;
68074;SDS011;54864;52.002;5.468;2023-11-21T06:04:47;22.65;;;15.57;;
68074;SDS011;54864;52.002;5.468;2023-11-21T06:06:08;26.15;;;15.10;;
68074;SDS011;54864;52.002;5.468;2023-11-21T06:07:30;20.90;;;14.45;;
68074;SDS011;54864;52.002;5.468;2023-11-21T06:08:51;25.60;;;16.88;;
68074;SDS011;54864;52.002;5.468;2023-11-21T06:10:13;25.88;;;15.48;;
68074;SDS011;54864;52.002;5.468;2023-11-21T06:11:36;22.25;;;15.40;;
68074;SDS011;54864;52.002;5.468;2023-11-21T06:12:58;24.48;;;15.95;;
68074;SDS011;54864;52.002;5.468;2023-11-21T06:14:19;25.77;;;15.97;;
68074;SDS011;54864;52.002;5.468;2023-11-21T06:15:42;24.80;;;16.27;;
68074;SDS011;54864;52.002;5.468;2023-11-21T06:17:03;22.88;;;15.27;;
68074;SDS011;54864;52.002;5.468;2023-11-21T06:18:25;23.33;;;15.20;;
68074;SDS011;54864;52.002;5.468;2023-11-21T06:19:46;25.50;;;15.52;;
68074;SDS011;54864;52.002;5.468;2023-11-21T06:21:09;26.15;;;15.52;;
68074;SDS011;54864;52.002;5.468;2023-11-21T06:22:30;24.98;;;15.65;;
68074;SDS011;54864;52.002;5.468;2023-11-21T06:23:52;22.67;;;15.77;;
68074;SDS011;54864;52.002;5.468;2023-11-21T06:25:13;22.85;;;15.05;;
68074;SDS011;54864;52.002;5.468;2023-11-21T06:26:37;22.13;;;14.57;;
68074;SDS011;54864;52.002;5.468;2023-11-21T06:27:59;25.92;;;15.43;;
68074;SDS011;54864;52.002;5.468;2023-11-21T06:29:21;22.88;;;15.23;;
68074;SDS011;54864;52.002;5.468;2023-11-21T06:30:42;26.38;;;16.25;;
68074;SDS011;54864;52.002;5.468;2023-11-21T06:32:05;27.70;;;15.27;;
68074;SDS011;54864;52.002;5.468;2023-11-21T06:33:26;27.60;;;16.63;;
68074;SDS011;54864;52.002;5.468;2023-11-21T06:34:49;26.10;;;14.97;;
68074;SDS011;54864;52.002;5.468;2023-11-21T06:36:10;25.25;;;15.00;;
68074;SDS011;54864;52.002;5.468;2023-11-21T06:37:33;24.33;;;16.15;;
68074;SDS011;54864;52.002;5.468;2023-11-21T06:38:54;26.85;;;16.40;;
68074;SDS011;54864;52.002;5.468;2023-11-21T06:40:16;28.85;;;16.92;;
68074;SDS011;54864;52.002;5.468;2023-11-21T06:41:40;22.90;;;16.20;;
68074;SDS011;54864;52.002;5.468;2023-11-21T06:43:02;27.13;;;17.13;;
68074;SDS011;54864;52.002;5.468;2023-11-21T06:44:23;27.98;;;17.08;;
68074;SDS011;54864;52.002;5.468;2023-11-21T06:45:45;29.00;;;17.73;;
68074;SDS011;54864;52.002;5.468;2023-11-21T06:47:06;30.45;;;16.90;;
68074;SDS011;54864;52.002;5.468;2023-11-21T06:48:28;27.38;;;17.17;;
68074;SDS011;54864;52.002;5.468;2023-11-21T06:49:50;31.15;;;17.17;;
68074;SDS011;54864;52.002;5.468;2023-11-21T06:51:13;34.40;;;16.48;;
68074;SDS011;54864;52.002;5.468;2023-11-21T06:52:34;30.38;;;17.10;;
68074;SDS011;54864;52.002;5.468;2023-11-21T06:53:56;44.65;;;17.45;;
68074;SDS011;54864;52.002;5.468;2023-11-21T06:55:17;37.85;;;17.52;;
68074;SDS011;54864;52.002;5.468;2023-11-21T06:56:40;39.88;;;18.58;;
68074;SDS011;54864;52.002;5.468;2023-11-21T06:58:01;43.67;;;18.45;;
68074;SDS011;54864;52.002;5.468;2023-11-21T06:59:25;34.00;;;17.50;;
68074;SDS011;54864;52.002;5.468;2023-11-21T07:00:46;42.13;;;18.10;;
68074;SDS011;54864;52.002;5.468;2023-11-21T07:02:10;41.75;;;17.50;;
68074;SDS011;54864;52.002;5.468;2023-11-21T07:03:31;35.95;;;17.45;;
68074;SDS011;54864;52.002;5.468;2023-11-21T07:04:53;36.58;;;17.25;;
68074;SDS011;54864;52.002;5.468;2023-11-21T07:06:15;38.90;;;17.20;;
68074;SDS011;54864;52.002;5.468;2023-11-21T07:07:37;37.65;;;18.23;;
68074;SDS011;54864;52.002;5.468;2023-11-21T07:08:59;35.47;;;17.63;;
68074;SDS011;54864;52.002;5.468;2023-11-21T07:10:21;36.80;;;18.10;;
68074;SDS011;54864;52.002;5.468;2023-11-21T07:11:45;32.88;;;16.95;;
68074;SDS011;54864;52.002;5.468;2023-11-21T07:13:06;36.30;;;17.88;;
68074;SDS011;54864;52.002;5.468;2023-11-21T07:14:30;35.50;;;18.23;;
68074;SDS011;54864;52.002;5.468;2023-11-21T07:15:51;35.90;;;17.05;;
68074;SDS011;54864;52.002;5.468;2023-11-21T07:17:14;44.38;;;17.90;;
68074;SDS011;54864;52.002;5.468;2023-11-21T07:18:37;35.05;;;17.38;;
68074;SDS011;54864;52.002;5.468;2023-11-21T07:20:00;35.75;;;17.80;;
68074;SDS011;54864;52.002;5.468;2023-11-21T07:21:21;38.60;;;17.67;;
68074;SDS011;54864;52.002;5.468;2023-11-21T07:22:45;36.78;;;18.30;;
68074;SDS011;54864;52.002;5.468;2023-11-21T07:24:06;41.30;;;17.98;;
68074;SDS011;54864;52.002;5.468;2023-11-21T07:25:29;34.55;;;17.27;;
68074;SDS011;54864;52.002;5.468;2023-11-21T07:26:51;37.63;;;17.83;;
68074;SDS011;54864;52.002;5.468;2023-11-21T07:28:17;36.00;;;18.02;;
68074;SDS011;54864;52.002;5.468;2023-11-21T07:29:38;38.90;;;17.45;;
68074;SDS011;54864;52.002;5.468;2023-11-21T07:31:00;38.60;;;18.77;;
68074;SDS011;54864;52.002;5.468;2023-11-21T07:32:21;37.65;;;18.88;;
68074;SDS011;54864;52.002;5.468;2023-11-21T07:33:43;32.75;;;17.90;;
68074;SDS011;54864;52.002;5.468;2023-11-21T07:35:04;40.13;;;19.80;;
68074;SDS011;54864;52.002;5.468;2023-11-21T07:36:28;34.13;;;18.13;;
68074;SDS011;54864;52.002;5.468;2023-11-21T07:37:49;37.65;;;18.50;;
68074;SDS011;54864;52.002;5.468;2023-11-21T07:39:11;33.25;;;16.38;;
68074;SDS011;54864;52.002;5.468;2023-11-21T07:40:32;29.58;;;16.67;;
68074;SDS011;54864;52.002;5.468;2023-11-21T07:41:56;32.05;;;16.88;;
68074;SDS011;54864;52.002;5.468;2023-11-21T07:43:18;27.60;;;17.05;;
68074;SDS011;54864;52.002;5.468;2023-11-21T07:44:41;30.83;;;16.15;;
68074;SDS011;54864;52.002;5.468;2023-11-21T07:46:02;30.00;;;16.08;;
68074;SDS011;54864;52.002;5.468;2023-11-21T07:47:24;26.38;;;15.10;;
68074;SDS011;54864;52.002;5.468;2023-11-21T07:48:47;24.50;;;15.20;;
68074;SDS011;54864;52.002;5.468;2023-11-21T07:50:09;30.55;;;15.98;;
68074;SDS011;54864;52.002;5.468;2023-11-21T07:51:31;31.00;;;15.93;;
68074;SDS011;54864;52.002;5.468;2023-11-21T07:52:54;27.27;;;16.50;;
68074;SDS011;54864;52.002;5.468;2023-11-21T07:54:15;27.42;;;15.00;;
68074;SDS011;54864;52.002;5.468;2023-11-21T07:55:37;26.13;;;15.15;;
68074;SDS011;54864;52.002;5.468;2023-11-21T07:57:00;26.15;;;15.02;;
68074;SDS011;54864;52.002;5.468;2023-11-21T07:58:23;24.05;;;14.85;;
68074;SDS011;54864;52.002;5.468;2023-11-21T07:59:44;22.92;;;13.95;;